Time;durP1;ratioP1;P1;durP2;ratioP2;P2;SDS_P1;SDS_P2;PMS_P1;PMS_P2;Temp;Humidity;BMP_temperature;BMP_pressure;BME280_temperature;BME280_humidity;BME280_pressure;Samples;Min_cycle;Max_cycle;Signal;HPM_P1;HPM_P2
2022/06/21 00:02:18;;;;;;;;;;;;;;;24.32;60.51;98993.66;4463908;31;20302;-87
2022/06/21 00:04:44;;;;;;;;;;;;;;;24.27;60.50;98981.78;4462883;32;37599;-87
2022/06/21 00:07:11;;;;;;;;;;;;;;;24.15;60.51;98978.56;4481387;32;19992;-85
2022/06/21 00:09:36;;;;;;;;;;;;;;;23.86;60.48;98973.47;4480415;31;20346;-87
2022/06/21 00:12:02;;;;;;;;;;;;;;;23.94;60.49;98986.84;4475115;31;21599;-87
2022/06/21 00:14:27;;;;;;;;;;;;;;;23.85;60.49;98987.75;4476436;31;20017;-88
2022/06/21 00:16:52;;;;;;;;;;;;;;;23.81;60.49;98991.69;4464549;32;20028;-86
2022/06/21 00:19:19;;;;;;;;;;;;;;;23.82;60.49;98994.19;4470186;32;20003;-87
2022/06/21 00:21:44;;;;;;;;;;;;;;;23.86;60.48;99002.69;4458619;32;20044;-87
2022/06/21 00:24:10;;;;;;;;;;;;;;;23.67;60.48;99000.22;4467156;32;24587;-88
2022/06/21 00:26:36;;;;;;;;;;;;;;;23.60;60.47;99002.59;4463916;32;20019;-87
2022/06/21 00:29:01;;;;;;;;;;;;;;;23.45;60.46;99020.03;4469417;31;19988;-87
2022/06/21 00:31:30;;;;;;;;;;;;;;;23.36;60.46;99018.25;4464659;31;19996;-87
2022/06/21 00:33:56;;;;;;;;;;;;;;;23.47;60.46;99020.72;4471741;31;20332;-87
2022/06/21 00:36:23;;;;;;;;;;;;;;;23.35;60.46;99017.41;4471393;32;20026;-87
2022/06/21 00:38:50;;;;;;;;;;;;;;;23.28;60.46;99025.13;4496045;31;19976;-86
2022/06/21 00:41:16;;;;;;;;;;;;;;;23.36;60.46;99029.69;4473198;31;20059;-87
2022/06/21 00:43:42;;;;;;;;;;;;;;;23.44;60.47;99031.63;4481229;32;19996;-87
2022/06/21 00:46:37;;;;;;;;;;;;;;;23.30;60.45;99016.19;4465547;32;20017;-85
2022/06/21 00:49:03;;;;;;;;;;;;;;;23.34;60.46;99014.91;4482147;31;20300;-87
2022/06/21 00:51:33;;;;;;;;;;;;;;;23.30;60.45;99011.69;4475457;31;20014;-86
2022/06/21 00:53:59;;;;;;;;;;;;;;;23.38;60.46;99017.09;4464376;31;19992;-87
2022/06/21 00:56:25;;;;;;;;;;;;;;;23.28;60.45;99011.84;4476568;32;20362;-87
2022/06/21 00:58:50;;;;;;;;;;;;;;;23.40;60.45;99012.47;4475343;31;19969;-85
2022/06/21 01:01:15;;;;;;;;;;;;;;;23.33;60.45;99013.22;4477888;32;20038;-87
2022/06/21 01:03:42;;;;;;;;;;;;;;;23.43;60.47;99009.56;4473592;31;20351;-86
2022/06/21 01:06:09;;;;;;;;;;;;;;;23.40;60.45;99003.66;4479485;32;20000;-86
2022/06/21 01:08:35;;;;;;;;;;;;;;;23.26;60.44;98986.44;4482061;31;19976;-86
2022/06/21 01:11:04;;;;;;;;;;;;;;;23.17;60.45;98982.81;4477138;31;19972;-87
2022/06/21 01:13:29;;;;;;;;;;;;;;;23.19;60.45;98983.53;4473615;31;20006;-86
2022/06/21 01:15:54;;;;;;;;;;;;;;;23.07;60.44;98999.81;4470905;32;20004;-87
2022/06/21 01:18:21;;;;;;;;;;;;;;;23.08;60.43;98996.16;4478735;31;20003;-86
2022/06/21 01:20:47;;;;;;;;;;;;;;;23.04;60.44;99014.19;4472758;31;20007;-86
2022/06/21 01:23:22;;;;;;;;;;;;;;;22.74;60.43;99007.31;4470694;32;20040;-86
2022/06/21 01:25:52;;;;;;;;;;;;;;;22.72;60.41;99005.78;4481650;31;20058;-88
2022/06/21 01:28:17;;;;;;;;;;;;;;;22.56;60.40;99016.97;4477539;31;20000;-86
2022/06/21 01:30:44;;;;;;;;;;;;;;;22.57;60.42;99037.22;4475341;31;20691;-87
2022/06/21 01:33:13;;;;;;;;;;;;;;;22.57;60.41;99046.00;4481299;32;20000;-87
2022/06/21 01:35:40;;;;;;;;;;;;;;;22.65;60.42;99045.28;4480885;31;20062;-87
2022/06/21 01:38:05;;;;;;;;;;;;;;;22.71;60.42;99054.47;4470531;32;19972;-87
2022/06/21 01:40:31;;;;;;;;;;;;;;;22.66;60.42;99055.75;4493478;31;19987;-87
2022/06/21 01:43:01;;;;;;;;;;;;;;;22.65;60.42;99056.72;4475043;31;20000;-87
2022/06/21 01:45:28;;;;;;;;;;;;;;;22.64;60.42;99048.91;4478715;32;20007;-88
2022/06/21 01:47:57;;;;;;;;;;;;;;;22.65;60.42;99046.13;4481423;31;19980;-88
2022/06/21 01:50:22;;;;;;;;;;;;;;;22.69;60.42;99049.31;4471063;32;20026;-87
2022/06/21 01:52:48;;;;;;;;;;;;;;;22.51;60.41;99051.88;4497181;31;19992;-88
2022/06/21 01:55:15;;;;;;;;;;;;;;;22.44;60.40;99052.56;4489710;31;19996;-87
2022/06/21 01:57:40;;;;;;;;;;;;;;;22.43;60.40;99067.66;4476552;32;20011;-87
2022/06/21 02:00:06;;;;;;;;;;;;;;;22.37;60.40;99053.16;4495160;31;25940;-88
2022/06/21 02:02:37;;;;;;;;;;;;;;;22.17;60.38;99062.06;4478303;31;20356;-88
2022/06/21 02:05:04;;;;;;;;;;;;;;;22.10;60.39;99060.12;4475258;31;20305;-91
2022/06/21 02:07:31;;;;;;;;;;;;;;;22.19;60.40;99067.22;4470753;32;20057;-88
2022/06/21 02:10:02;;;;;;;;;;;;;;;22.11;60.39;99067.09;4481351;31;19998;-90
2022/06/21 02:12:27;;;;;;;;;;;;;;;21.94;60.38;99060.62;4487745;31;19988;-89
2022/06/21 02:14:53;;;;;;;;;;;;;;;21.87;60.38;99070.13;4491809;31;26005;-90
2022/06/21 02:17:18;;;;;;;;;;;;;;;21.82;60.37;99075.00;4471475;31;20046;-88
2022/06/21 02:19:52;;;;;;;;;;;;;;;21.88;60.38;99074.44;4494091;31;19968;-89
2022/06/21 02:22:22;;;;;;;;;;;;;;;21.96;60.38;99074.56;4468808;31;19984;-90
2022/06/21 02:24:47;;;;;;;;;;;;;;;21.97;60.38;99068.31;4479931;32;20018;-91
2022/06/21 02:27:14;;;;;;;;;;;;;;;22.00;60.38;99073.31;4470178;32;20318;-89
2022/06/21 02:29:40;;;;;;;;;;;;;;;21.89;60.38;99073.47;4500258;31;19980;-91
2022/06/21 02:32:06;;;;;;;;;;;;;;;21.96;60.38;99072.75;4472313;32;20004;-89
2022/06/21 02:34:32;;;;;;;;;;;;;;;21.92;60.37;99059.94;4483589;32;20016;-91
2022/06/21 02:36:58;;;;;;;;;;;;;;;21.80;60.37;99066.34;4480252;31;20037;-88
2022/06/21 02:39:24;;;;;;;;;;;;;;;21.59;60.36;99054.03;4462606;32;20004;-91
2022/06/21 02:41:54;;;;;;;;;;;;;;;21.51;60.36;99048.56;4475964;32;20037;-91
2022/06/21 02:44:22;;;;;;;;;;;;;;;21.47;60.35;99051.59;4459417;31;20037;-90
2022/06/21 02:46:49;;;;;;;;;;;;;;;21.48;60.36;99048.00;4482773;32;20055;-90
2022/06/21 02:49:21;;;;;;;;;;;;;;;21.55;60.35;99059.75;4467084;32;20025;-91
2022/06/21 02:51:47;;;;;;;;;;;;;;;21.43;60.35;99057.19;4471851;32;19989;-88
2022/06/21 02:54:12;;;;;;;;;;;;;;;21.40;60.36;99067.22;4495598;31;19980;-88
2022/06/21 02:56:45;;;;;;;;;;;;;;;21.25;60.35;99074.66;4490826;31;20003;-88
2022/06/21 02:59:11;;;;;;;;;;;;;;;21.21;60.34;99082.97;4487677;31;19987;-88
2022/06/21 03:01:46;;;;;;;;;;;;;;;21.00;60.33;99099.72;4475852;31;25004;-88
2022/06/21 03:04:18;;;;;;;;;;;;;;;20.91;60.32;99094.37;4479845;32;19985;-88
2022/06/21 03:06:44;;;;;;;;;;;;;;;20.80;60.32;99127.84;4469758;31;19999;-88
2022/06/21 03:09:10;;;;;;;;;;;;;;;20.73;60.32;99121.41;4478742;31;20008;-88
2022/06/21 03:11:36;;;;;;;;;;;;;;;20.71;60.32;99118.06;4476191;31;19998;-89
2022/06/21 03:14:05;;;;;;;;;;;;;;;20.63;60.32;99144.31;4471843;31;20008;-88
2022/06/21 03:16:30;;;;;;;;;;;;;;;20.62;60.32;99140.00;4472180;32;19987;-88
2022/06/21 03:18:58;;;;;;;;;;;;;;;20.60;60.30;99139.28;4483101;31;20280;-90
2022/06/21 03:21:30;;;;;;;;;;;;;;;20.64;60.31;99134.56;4472080;32;19980;-90
2022/06/21 03:23:56;;;;;;;;;;;;;;;20.56;60.31;99158.16;4482797;31;19988;-88
2022/06/21 03:26:21;;;;;;;;;;;;;;;20.47;60.30;99138.59;4476857;31;19984;-87
2022/06/21 03:28:46;;;;;;;;;;;;;;;20.24;60.29;99145.75;4477992;32;20059;-90
2022/06/21 03:31:12;;;;;;;;;;;;;;;20.34;60.29;99151.09;4469686;32;24255;-88
2022/06/21 03:33:38;;;;;;;;;;;;;;;20.23;60.29;99146.72;4487205;31;19992;-88
2022/06/21 03:36:04;;;;;;;;;;;;;;;20.27;60.29;99156.06;4474399;31;20485;-90
2022/06/21 03:38:29;;;;;;;;;;;;;;;20.26;60.30;99156.19;4466617;31;19988;-89
2022/06/21 03:43:50;;;;;;;;;;;;;;;20.20;60.28;99171.59;4480815;31;19991;-89
2022/06/21 03:46:18;;;;;;;;;;;;;;;20.20;60.28;99178.69;4473322;31;19991;-89
2022/06/21 03:48:48;;;;;;;;;;;;;;;20.14;60.28;99165.97;4471596;32;20328;-89
2022/06/21 03:51:18;;;;;;;;;;;;;;;20.19;60.28;99177.84;4471436;32;20350;-88
2022/06/21 03:53:50;;;;;;;;;;;;;;;20.08;60.29;99175.19;4477286;31;19992;-87
2022/06/21 03:56:29;;;;;;;;;;;;;;;20.07;60.27;99196.47;4475857;31;20329;-87
2022/06/21 03:59:07;;;;;;;;;;;;;;;20.15;60.28;99196.72;4480806;32;19977;-87
2022/06/21 04:01:51;;;;;;;;;;;;;;;20.18;60.29;99196.47;4482262;31;20320;-88
2022/06/21 04:04:17;;;;;;;;;;;;;;;20.37;60.29;99193.19;4471223;32;20112;-90
2022/06/21 04:06:42;;;;;;;;;;;;;;;20.31;60.29;99197.12;4487595;31;19989;-89
2022/06/21 04:09:10;;;;;;;;;;;;;;;20.38;60.29;99185.13;4480369;32;20249;-88
2022/06/21 04:12:01;;;;;;;;;;;;;;;20.40;60.30;99191.16;4481779;31;19992;-88
2022/06/21 04:14:30;;;;;;;;;;;;;;;20.41;60.30;99194.63;4488363;31;19976;-88
2022/06/21 04:16:59;;;;;;;;;;;;;;;20.32;60.29;99190.03;4491743;31;19964;-87
2022/06/21 04:19:28;;;;;;;;;;;;;;;20.18;60.29;99188.53;4482393;32;20305;-87
2022/06/21 04:21:59;;;;;;;;;;;;;;;20.26;60.29;99190.56;4495012;31;19993;-87
2022/06/21 04:24:25;;;;;;;;;;;;;;;20.22;60.28;99192.59;4490265;31;20041;-86
2022/06/21 04:26:56;;;;;;;;;;;;;;;20.19;60.29;99196.34;4493205;31;20008;-86
2022/06/21 04:29:24;;;;;;;;;;;;;;;20.20;60.28;99195.38;4469319;31;19981;-87
2022/06/21 04:31:51;;;;;;;;;;;;;;;20.23;60.29;99194.28;4492790;31;19988;-86
2022/06/21 04:34:21;;;;;;;;;;;;;;;20.27;60.29;99195.72;4475652;31;20007;-86
2022/06/21 04:36:47;;;;;;;;;;;;;;;20.29;60.29;99209.63;4480278;32;19969;-86
2022/06/21 04:39:22;;;;;;;;;;;;;;;20.28;60.29;99207.97;4466825;31;20036;-87
2022/06/21 04:41:52;;;;;;;;;;;;;;;20.09;60.28;99207.75;4470748;32;20019;-85
2022/06/21 04:44:22;;;;;;;;;;;;;;;19.91;60.27;99218.00;4481653;31;20332;-87
2022/06/21 04:46:50;;;;;;;;;;;;;;;19.93;60.26;99218.72;4475995;31;19976;-87
2022/06/21 04:49:23;;;;;;;;;;;;;;;19.99;60.27;99220.03;4476245;32;20054;-87
2022/06/21 04:51:48;;;;;;;;;;;;;;;20.08;60.27;99208.72;4459862;32;20004;-89
2022/06/21 04:54:18;;;;;;;;;;;;;;;20.15;60.28;99223.13;4484795;31;20337;-87
2022/06/21 04:56:46;;;;;;;;;;;;;;;20.18;60.29;99215.81;4474291;31;19988;-87
2022/06/21 04:59:21;;;;;;;;;;;;;;;20.09;60.28;99216.50;4465048;32;19957;-87
2022/06/21 05:01:46;;;;;;;;;;;;;;;20.30;60.29;99221.88;4469216;32;19996;-87
2022/06/21 05:04:18;;;;;;;;;;;;;;;20.38;60.29;99208.91;4465624;32;19995;-87
2022/06/21 05:06:43;;;;;;;;;;;;;;;20.21;60.29;99212.91;4481652;31;19984;-86
2022/06/21 05:09:11;;;;;;;;;;;;;;;20.18;60.29;99229.00;4491989;31;20345;-86
2022/06/21 05:11:36;;;;;;;;;;;;;;;20.36;60.29;99239.91;4475366;31;19996;-87
2022/06/21 05:14:01;;;;;;;;;;;;;;;20.48;60.30;99238.09;4489292;31;22371;-87
2022/06/21 05:16:33;;;;;;;;;;;;;;;20.43;60.30;99235.00;4470487;32;19985;-87
2022/06/21 05:19:02;;;;;;;;;;;;;;;20.36;60.30;99232.00;4481727;31;19972;-87
2022/06/21 05:21:31;;;;;;;;;;;;;;;20.52;60.31;99232.44;4464011;31;20068;-86
2022/06/21 05:23:56;;;;;;;;;;;;;;;20.52;60.30;99234.25;4475550;31;20016;-87
2022/06/21 05:26:31;;;;;;;;;;;;;;;20.47;60.31;99239.06;4480968;32;20309;-87
2022/06/21 05:29:19;;;;;;;;;;;;;;;20.44;60.30;99248.09;4465508;32;19999;-87
2022/06/21 05:31:45;;;;;;;;;;;;;;;20.38;60.29;99253.84;4464157;32;20498;-86
2022/06/21 05:34:15;;;;;;;;;;;;;;;20.47;60.30;99242.56;4481365;31;19988;-88
2022/06/21 05:36:42;;;;;;;;;;;;;;;20.53;60.30;99246.50;4490508;31;19991;-86
2022/06/21 05:39:12;;;;;;;;;;;;;;;20.55;60.31;99239.28;4470155;32;19991;-87
2022/06/21 05:41:39;;;;;;;;;;;;;;;20.76;60.31;99249.91;4470309;32;19996;-87
2022/06/21 05:44:23;;;;;;;;;;;;;;;20.84;60.32;99260.72;4466748;31;19984;-87
2022/06/21 05:46:49;;;;;;;;;;;;;;;20.95;60.33;99257.19;4489933;31;19975;-87
2022/06/21 05:49:19;;;;;;;;;;;;;;;20.73;60.32;99253.66;4475871;32;20245;-87
2022/06/21 05:51:44;;;;;;;;;;;;;;;20.63;60.32;99255.38;4481001;32;19989;-87
2022/06/21 05:54:11;;;;;;;;;;;;;;;20.69;60.31;99254.03;4479096;31;20021;-87
2022/06/21 05:56:37;;;;;;;;;;;;;;;20.82;60.32;99263.50;4469898;32;19996;-87
2022/06/21 05:59:11;;;;;;;;;;;;;;;20.86;60.33;99264.09;4457016;32;20029;-87
2022/06/21 06:01:39;;;;;;;;;;;;;;;20.81;60.32;99277.66;4480802;31;19992;-87
2022/06/21 06:04:25;;;;;;;;;;;;;;;20.76;60.32;99279.00;4477444;31;19988;-87
2022/06/21 06:06:50;;;;;;;;;;;;;;;20.77;60.31;99289.47;4476682;31;19968;-87
2022/06/21 06:09:25;;;;;;;;;;;;;;;20.71;60.32;99286.50;4479778;32;24620;-87
2022/06/21 06:12:03;;;;;;;;;;;;;;;20.72;60.32;99290.81;4471883;31;20010;-87
2022/06/21 06:14:28;;;;;;;;;;;;;;;20.91;60.33;99288.34;4473192;32;20052;-87
2022/06/21 06:16:53;;;;;;;;;;;;;;;20.87;60.33;99286.09;4496453;31;19999;-88
2022/06/21 06:19:21;;;;;;;;;;;;;;;20.87;60.33;99278.16;4476020;31;26514;-87
2022/06/21 06:21:50;;;;;;;;;;;;;;;20.93;60.32;99288.22;4466392;32;20003;-86
2022/06/21 06:24:23;;;;;;;;;;;;;;;20.83;60.32;99309.31;4483180;31;19992;-87
2022/06/21 06:26:50;;;;;;;;;;;;;;;20.81;60.32;99296.19;4494716;31;20047;-86
2022/06/21 06:29:22;;;;;;;;;;;;;;;20.84;60.32;99281.91;4485798;31;19976;-87
2022/06/21 06:31:53;;;;;;;;;;;;;;;20.87;60.33;99294.03;4493811;31;20040;-87
2022/06/21 06:34:20;;;;;;;;;;;;;;;20.79;60.32;99303.41;4476574;31;20008;-87
2022/06/21 06:37:00;;;;;;;;;;;;;;;20.95;60.34;99300.37;4481477;32;19973;-87
2022/06/21 06:39:26;;;;;;;;;;;;;;;20.97;60.33;99290.50;4483089;31;19990;-87
2022/06/21 06:41:54;;;;;;;;;;;;;;;21.23;60.34;99303.38;4462612;32;19984;-86
2022/06/21 06:44:21;;;;;;;;;;;;;;;21.41;60.36;99309.81;4497399;31;20035;-87
2022/06/21 06:46:48;;;;;;;;;;;;;;;21.49;60.36;99310.00;4477491;31;19988;-87
2022/06/21 06:49:17;;;;;;;;;;;;;;;21.42;60.36;99301.75;4491965;31;19995;-87
2022/06/21 06:51:48;;;;;;;;;;;;;;;21.82;60.38;99293.09;4482897;32;19998;-87
2022/06/21 06:54:22;;;;;;;;;;;;;;;21.99;60.38;99299.56;4481184;31;20007;-87
2022/06/21 06:56:50;;;;;;;;;;;;;;;22.13;60.39;99306.38;4471581;32;20332;-86
2022/06/21 06:59:15;;;;;;;;;;;;;;;22.16;60.39;99309.59;4480685;31;20424;-87
2022/06/21 07:01:45;;;;;;;;;;;;;;;22.26;60.41;99310.47;4476415;31;20395;-87
2022/06/21 07:04:11;;;;;;;;;;;;;;;22.03;60.40;99304.50;4479967;32;20015;-87
2022/06/21 07:06:40;;;;;;;;;;;;;;;21.97;60.39;99309.47;4469671;31;19991;-87
2022/06/21 07:09:26;;;;;;;;;;;;;;;21.89;60.39;99314.59;4472003;32;20382;-88
2022/06/21 07:12:03;;;;;;;;;;;;;;;21.82;60.38;99313.44;4482671;31;19980;-86
2022/06/21 07:14:29;;;;;;;;;;;;;;;21.85;60.38;99315.81;4458934;32;19988;-87
2022/06/21 07:16:55;;;;;;;;;;;;;;;22.01;60.40;99318.84;4471625;32;19995;-87
2022/06/21 07:19:21;;;;;;;;;;;;;;;21.99;60.39;99328.72;4470869;32;19968;-87
2022/06/21 07:21:46;;;;;;;;;;;;;;;21.85;60.38;99335.22;4472250;32;20008;-87
2022/06/21 07:24:15;;;;;;;;;;;;;;;21.96;60.39;99327.16;4483803;31;20031;-87
2022/06/21 07:26:47;;;;;;;;;;;;;;;22.24;60.41;99328.34;4466005;31;20047;-87
2022/06/21 07:29:12;;;;;;;;;;;;;;;22.44;60.41;99325.72;4471800;31;20290;-88
2022/06/21 07:31:39;;;;;;;;;;;;;;;22.46;60.41;99337.87;4471754;32;20041;-88
2022/06/21 07:34:06;;;;;;;;;;;;;;;22.67;60.43;99340.47;4469814;31;20003;-87
2022/06/21 07:36:33;;;;;;;;;;;;;;;22.29;60.41;99360.59;4474469;31;19984;-88
2022/06/21 07:38:59;;;;;;;;;;;;;;;22.50;60.42;99347.28;4464639;32;20006;-87
2022/06/21 07:41:29;;;;;;;;;;;;;;;22.57;60.43;99350.22;4489668;31;19976;-87
2022/06/21 07:43:56;;;;;;;;;;;;;;;22.82;60.43;99354.22;4480327;32;20332;-87
2022/06/21 07:46:24;;;;;;;;;;;;;;;22.60;60.42;99341.97;4469529;31;19995;-87
2022/06/21 07:48:51;;;;;;;;;;;;;;;22.62;60.42;99338.22;4479272;31;20031;-85
2022/06/21 07:51:17;;;;;;;;;;;;;;;22.75;60.43;99343.28;4472934;31;20003;-87
2022/06/21 07:54:01;;;;;;;;;;;;;;;22.93;60.44;99346.97;4471643;32;20023;-88
2022/06/21 07:56:38;;;;;;;;;;;;;;;23.17;60.45;99337.78;4482529;31;20005;-87
2022/06/21 07:59:23;;;;;;;;;;;;;;;23.34;60.47;99339.75;4479256;31;19986;-88
2022/06/21 08:07:27;;;;;;;;;;;;;;;23.04;60.45;99351.34;4486223;31;20003;-87
2022/06/21 08:10:13;;;;;;;;;;;;;;;22.90;60.44;99341.94;4481380;31;19992;-87
2022/06/21 08:12:38;;;;;;;;;;;;;;;22.98;60.45;99340.44;4482397;32;20045;-86
2022/06/21 08:15:03;;;;;;;;;;;;;;;;;;4480910;31;19984;-87
2022/06/21 08:17:58;;;;;;;;;;;;;;;23.30;60.46;99348.97;4490824;31;20004;-88
2022/06/21 08:20:25;;;;;;;;;;;;;;;23.36;60.47;99337.78;4477230;31;19996;-88
2022/06/21 08:22:55;;;;;;;;;;;;;;;23.35;60.47;99344.06;4471415;32;19981;-87
2022/06/21 08:25:33;;;;;;;;;;;;;;;23.39;60.46;99360.56;4487650;31;19984;-86
2022/06/21 08:27:59;;;;;;;;;;;;;;;23.48;60.47;99354.44;4475405;31;19968;-87
2022/06/21 08:30:29;;;;;;;;;;;;;;;23.71;60.48;99347.88;4492643;31;20003;-88
2022/06/21 08:32:55;;;;;;;;;;;;;;;23.78;60.48;99362.25;4470026;32;20007;-87
2022/06/21 08:35:27;;;;;;;;;;;;;;;23.89;60.50;99356.75;4464015;32;19988;-88
2022/06/21 08:37:52;;;;;;;;;;;;;;;23.81;60.50;99343.34;4473819;31;20358;-87
2022/06/21 08:40:23;;;;;;;;;;;;;;;24.07;60.51;99351.53;4479872;32;19996;-87
2022/06/21 08:43:00;;;;;;;;;;;;;;;24.33;60.52;99343.78;4472412;31;20020;-88
2022/06/21 08:45:49;;;;;;;;;;;;;;;24.24;60.51;99359.75;4479497;32;20007;-87
2022/06/21 08:48:26;;;;;;;;;;;;;;;24.23;60.51;99358.91;4445537;31;19976;-87
2022/06/21 08:50:55;;;;;;;;;;;;;;;24.37;60.52;99346.97;4477222;32;19980;-87
2022/06/21 08:53:34;;;;;;;;;;;;;;;24.35;60.51;99370.22;4474724;31;20350;-87
2022/06/21 08:56:14;;;;;;;;;;;;;;;24.34;60.52;99357.91;4491813;31;19953;-86
2022/06/21 08:58:52;;;;;;;;;;;;;;;24.19;60.52;99342.41;4476293;31;20316;-88
2022/06/21 09:01:21;;;;;;;;;;;;;;;24.26;60.51;99355.13;4471126;31;19996;-86
2022/06/21 09:04:02;;;;;;;;;;;;;;;24.18;60.51;99338.09;4481656;32;20003;-87
2022/06/21 09:06:47;;;;;;;;;;;;;;;24.41;60.52;99343.06;4482304;31;20010;-87
2022/06/21 09:09:18;;;;;;;;;;;;;;;24.56;60.53;99341.56;4467126;31;19984;-86
2022/06/21 09:12:03;;;;;;;;;;;;;;;24.76;60.54;99347.63;4475532;31;19992;-86
2022/06/21 09:14:33;;;;;;;;;;;;;;;24.80;60.54;99346.34;4490439;31;20033;-87
2022/06/21 09:16:58;;;;;;;;;;;;;;;24.77;60.54;99347.47;4471203;32;20317;-87
2022/06/21 09:19:41;;;;;;;;;;;;;;;25.05;60.56;99345.66;4496391;31;20011;-87
2022/06/21 09:22:22;;;;;;;;;;;;;;;24.91;60.55;99346.16;4481700;31;19980;-87
2022/06/21 09:25:02;;;;;;;;;;;;;;;25.06;60.56;99344.66;4477035;31;19992;-87
2022/06/21 09:27:36;;;;;;;;;;;;;;;25.22;60.57;99356.47;4475603;31;20044;-86
2022/06/21 09:30:04;;;;;;;;;;;;;;;25.05;60.55;99371.44;4480117;32;19995;-86
2022/06/21 09:32:42;;;;;;;;;;;;;;;24.82;60.54;99365.66;4471597;31;19985;-86
2022/06/21 09:35:07;;;;;;;;;;;;;;;24.97;60.55;99356.19;4479784;32;20328;-86
2022/06/21 09:37:47;;;;;;;;;;;;;;;25.24;60.57;99359.81;4496331;31;20248;-86
2022/06/21 09:40:18;;;;;;;;;;;;;;;25.30;60.58;99356.53;4470574;32;20043;-86
2022/06/21 09:42:52;;;;;;;;;;;;;;;25.32;60.57;99357.25;4495896;31;20253;-87
2022/06/21 09:45:27;;;;;;;;;;;;;;;25.40;60.58;99355.47;4477324;31;19980;-87
2022/06/21 09:47:58;;;;;;;;;;;;;;;25.32;60.57;99346.59;4475235;31;19988;-86
2022/06/21 09:50:26;;;;;;;;;;;;;;;25.16;60.56;99349.09;4494322;31;20064;-86
2022/06/21 09:52:56;;;;;;;;;;;;;;;25.26;60.56;99364.00;4470868;31;20549;-87
2022/06/21 09:55:28;;;;;;;;;;;;;;;25.36;60.57;99353.28;4480711;32;19988;-87
2022/06/21 09:58:02;;;;;;;;;;;;;;;25.27;60.56;99357.69;4496169;31;20057;-86
2022/06/21 10:00:30;;;;;;;;;;;;;;;25.42;60.58;99349.16;4476208;31;19968;-86
2022/06/21 10:03:14;;;;;;;;;;;;;;;25.72;60.59;99350.59;4490111;31;19976;-87
2022/06/21 10:05:57;;;;;;;;;;;;;;;26.11;60.60;99359.03;4484771;32;19991;-86
2022/06/21 10:08:41;;;;;;;;;;;;;;;26.20;60.62;99352.75;4486593;31;19980;-86
2022/06/21 10:11:13;;;;;;;;;;;;;;;25.81;60.60;99365.69;4477604;32;19999;-87
2022/06/21 10:13:45;;;;;;;;;;;;;;;25.84;60.59;99360.03;4473714;32;20027;-86
2022/06/21 10:16:16;;;;;;;;;;;;;;;25.97;60.60;99355.09;4490041;31;19976;-86
2022/06/21 10:18:41;;;;;;;;;;;;;;;25.88;60.60;99351.56;4490184;31;20124;-86
2022/06/21 10:21:06;;;;;;;;;;;;;;;25.88;60.60;99350.72;4474324;31;20299;-87
2022/06/21 10:23:32;;;;;;;;;;;;;;;26.05;60.61;99359.69;4491505;31;20320;-86
2022/06/21 10:26:12;;;;;;;;;;;;;;;26.03;60.61;99362.50;4472585;31;20079;-86
2022/06/21 10:28:56;;;;;;;;;;;;;;;26.38;60.63;99350.88;4491571;31;19994;-86
2022/06/21 10:31:41;;;;;;;;;;;;;;;26.25;60.62;99337.09;4495822;31;20059;-86
2022/06/21 10:34:13;;;;;;;;;;;;;;;26.38;60.62;99363.38;4473233;31;19968;-85
2022/06/21 10:36:57;;;;;;;;;;;;;;;26.24;60.63;99354.94;4480234;32;20317;-86
2022/06/21 10:39:49;;;;;;;;;;;;;;;26.25;60.62;99364.59;4471025;31;19988;-86
2022/06/21 10:45:11;;;;;;;;;;;;;;;26.60;60.63;99350.31;4495533;31;19990;-86
2022/06/21 10:47:45;;;;;;;;;;;;;;;26.74;60.65;99353.37;4494825;31;19972;-86
2022/06/21 10:50:22;;;;;;;;;;;;;;;26.78;60.64;99350.22;4474960;31;19988;-85
2022/06/21 10:53:01;;;;;;;;;;;;;;;26.82;60.65;99356.06;4491172;31;19973;-86
2022/06/21 10:55:30;;;;;;;;;;;;;;;26.59;60.64;99353.97;4481772;32;20035;-86
2022/06/21 10:58:28;;;;;;;;;;;;;;;26.61;60.64;99357.31;4469654;31;20033;-86
2022/06/21 11:01:18;;;;;;;;;;;;;;;26.64;60.65;99355.31;4459648;32;20052;-85
2022/06/21 11:03:52;;;;;;;;;;;;;;;26.41;60.63;99371.91;4473573;32;19969;-87
2022/06/21 11:06:23;;;;;;;;;;;;;;;26.46;60.63;99364.25;4496842;31;20028;-86
2022/06/21 11:09:03;;;;;;;;;;;;;;;26.53;60.63;99362.63;4471803;32;19985;-86
2022/06/21 11:11:48;;;;;;;;;;;;;;;26.59;60.64;99363.81;4497470;31;20016;-86
2022/06/21 11:14:13;;;;;;;;;;;;;;;26.06;60.61;99351.50;4486404;31;19990;-85
2022/06/21 11:17:00;;;;;;;;;;;;;;;26.31;60.63;99347.16;4494622;31;19977;-85
2022/06/21 11:19:25;;;;;;;;;;;;;;;26.57;60.64;99357.81;4476443;31;20006;-86
2022/06/21 11:21:54;;;;;;;;;;;;;;;26.81;60.65;99355.22;4493271;31;19977;-85
2022/06/21 11:24:31;;;;;;;;;;;;;;;26.95;60.66;99372.44;4482977;32;20040;-86
2022/06/21 11:26:56;;;;;;;;;;;;;;;26.66;60.64;99358.66;4472080;32;19981;-86
2022/06/21 11:29:24;;;;;;;;;;;;;;;26.66;60.64;99356.81;4482665;31;20246;-87
2022/06/21 11:31:56;;;;;;;;;;;;;;;26.52;60.63;99366.31;4486627;32;20032;-86
2022/06/21 11:34:37;;;;;;;;;;;;;;;26.80;60.65;99350.03;4470637;31;20032;-86
2022/06/21 11:37:21;;;;;;;;;;;;;;;27.09;60.67;99363.84;4471904;32;19992;-86
2022/06/21 11:39:49;;;;;;;;;;;;;;;27.16;60.67;99364.00;4497574;31;20003;-87
2022/06/21 11:42:31;;;;;;;;;;;;;;;27.34;60.68;99358.53;4471772;32;19996;-85
2022/06/21 11:44:56;;;;;;;;;;;;;;;27.19;60.67;99372.53;4479244;32;19992;-87
2022/06/21 11:47:40;;;;;;;;;;;;;;;27.06;60.66;99366.84;4479396;32;19973;-86
2022/06/21 11:50:06;;;;;;;;;;;;;;;27.00;60.66;99354.13;4470516;31;20094;-87
2022/06/21 11:52:43;;;;;;;;;;;;;;;27.21;60.68;99367.87;4479797;32;20317;-86
2022/06/21 11:55:15;;;;;;;;;;;;;;;27.20;60.68;99362.66;4475047;32;20000;-86
2022/06/21 11:58:01;;;;;;;;;;;;;;;27.38;60.68;99357.19;4469051;32;19981;-87
2022/06/21 12:00:53;;;;;;;;;;;;;;;27.19;60.67;99364.50;4467464;32;19998;-86
2022/06/21 12:03:41;;;;;;;;;;;;;;;27.00;60.66;99372.00;4471655;32;20048;-86
2022/06/21 12:06:11;;;;;;;;;;;;;;;26.97;60.66;99369.59;4456106;31;19968;-86
2022/06/21 12:08:36;;;;;;;;;;;;;;;26.83;60.65;99381.75;4473885;32;19980;-86
2022/06/21 12:11:11;;;;;;;;;;;;;;;26.90;60.66;99350.72;4477831;32;20024;-86
2022/06/21 12:13:40;;;;;;;;;;;;;;;26.86;60.66;99360.06;4473490;32;19999;-86
2022/06/21 12:16:05;;;;;;;;;;;;;;;26.87;60.66;99356.41;4480009;32;20024;-86
2022/06/21 12:18:31;;;;;;;;;;;;;;;27.08;60.66;99367.50;4479534;32;19980;-86
2022/06/21 12:21:01;;;;;;;;;;;;;;;27.35;60.68;99354.84;4468741;32;19976;-86
2022/06/21 12:23:41;;;;;;;;;;;;;;;27.28;60.68;99348.50;4477124;32;19981;-86
2022/06/21 12:26:09;;;;;;;;;;;;;;;27.50;60.69;99337.16;4468984;32;20386;-86
2022/06/21 12:28:35;;;;;;;;;;;;;;;27.80;60.71;99339.16;4468911;32;19989;-85
2022/06/21 12:31:03;;;;;;;;;;;;;;;27.72;60.71;99336.50;4480157;32;20067;-86
2022/06/21 12:33:33;;;;;;;;;;;;;;;27.82;60.71;99334.47;4460625;32;20011;-85
2022/06/21 12:36:01;;;;;;;;;;;;;;;27.71;60.70;99337.50;4480973;32;19973;-85
2022/06/21 12:38:32;;;;;;;;;;;;;;;27.58;60.70;99342.50;4476321;32;20230;-86
2022/06/21 12:41:06;;;;;;;;;;;;;;;27.20;60.68;99334.09;4473688;32;20046;-86
2022/06/21 12:43:35;;;;;;;;;;;;;;;27.48;60.69;99336.50;4478472;32;20364;-86
2022/06/21 12:46:04;;;;;;;;;;;;;;;27.31;60.68;99330.28;4481358;32;19984;-85
2022/06/21 12:48:42;;;;;;;;;;;;;;;27.25;60.67;99338.97;4456080;32;19985;-86
2022/06/21 12:51:23;;;;;;;;;;;;;;;27.19;60.68;99334.28;4482321;32;20044;-86
2022/06/21 12:53:49;;;;;;;;;;;;;;;27.13;60.67;99325.09;4477818;32;19984;-85
2022/06/21 12:56:33;;;;;;;;;;;;;;;27.02;60.67;99317.41;4480871;32;20211;-86
2022/06/21 12:59:03;;;;;;;;;;;;;;;27.26;60.68;99324.63;4477117;32;19961;-86
2022/06/21 13:01:30;;;;;;;;;;;;;;;27.47;60.69;99316.94;4469738;32;20144;-86
2022/06/21 13:04:14;;;;;;;;;;;;;;;27.07;60.67;99327.59;4476851;32;19976;-85
2022/06/21 13:06:51;;;;;;;;;;;;;;;26.70;60.66;99301.25;4493675;32;19985;-86
2022/06/21 13:09:49;;;;;;;;;;;;;;;26.64;60.65;99325.94;4476804;32;19976;-87
2022/06/21 13:12:17;;;;;;;;;;;;;;;26.49;60.64;99329.22;4445479;31;20003;-86
2022/06/21 13:14:46;;;;;;;;;;;;;;;26.25;60.63;99326.41;4474495;32;20012;-87
2022/06/21 13:17:26;;;;;;;;;;;;;;;26.55;60.64;99323.25;4474433;32;20038;-85
2022/06/21 13:20:00;;;;;;;;;;;;;;;26.67;60.65;99322.94;4477166;32;20026;-85